Time;durP1;ratioP1;P1;durP2;ratioP2;P2;SDS_P1;SDS_P2;PMS_P1;PMS_P2;Temp;Humidity;BMP_temperature;BMP_pressure;BME280_temperature;BME280_humidity;BME280_pressure;Samples;Min_cycle;Max_cycle;Signal;HPM_P1;HPM_P2
2023/04/27 00:01:37;;;;;;;5.65;4.72;;;;;;;;;;5043975;28;20534;-79
2023/04/27 00:04:04;;;;;;;7.25;4.60;;;;;;;;;;5077790;28;20197;-79
2023/04/27 00:06:31;;;;;;;8.10;4.85;;;;;;;;;;5060556;28;20184;-78
2023/04/27 00:08:58;;;;;;;7.32;6.20;;;;;;;;;;5078255;28;20256;-78
2023/04/27 00:11:24;;;;;;;7.90;5.20;;;;;;;;;;5043855;28;20276;-78
2023/04/27 00:13:50;;;;;;;6.60;5.03;;;;;;;;;;5043782;28;20219;-78
2023/04/27 00:16:16;;;;;;;6.97;5.00;;;;;;;;;;5060118;28;20221;-79
2023/04/27 00:18:42;;;;;;;6.13;5.25;;;;;;;;;;5043123;28;20516;-78
2023/04/27 00:21:11;;;;;;;8.87;5.30;;;;;;;;;;5043103;28;20180;-79
2023/04/27 00:23:37;;;;;;;8.40;5.60;;;;;;;;;;5077970;28;20453;-79
2023/04/27 00:26:03;;;;;;;14.87;6.13;;;;;;;;;;5042966;28;20258;-79
2023/04/27 00:28:29;;;;;;;6.13;4.30;;;;;;;;;;5077248;28;20491;-79
2023/04/27 00:30:55;;;;;;;11.93;5.40;;;;;;;;;;5059916;28;20406;-78
2023/04/27 00:33:21;;;;;;;9.30;5.07;;;;;;;;;;5043164;28;21294;-79
2023/04/27 00:35:47;;;;;;;13.32;5.20;;;;;;;;;;5077827;28;20413;-78
2023/04/27 00:38:13;;;;;;;6.93;5.03;;;;;;;;;;5043167;28;20185;-79
2023/04/27 00:40:39;;;;;;;12.98;6.30;;;;;;;;;;5043438;28;20554;-78
2023/04/27 00:43:05;;;;;;;8.90;6.00;;;;;;;;;;5059120;28;20184;-79
2023/04/27 00:45:31;;;;;;;7.05;4.85;;;;;;;;;;5077276;28;20173;-79
2023/04/27 00:47:58;;;;;;;11.93;5.85;;;;;;;;;;5058908;28;20657;-78
2023/04/27 00:50:28;;;;;;;9.13;4.93;;;;;;;;;;5077200;28;20220;-78
2023/04/27 00:52:54;;;;;;;9.68;5.60;;;;;;;;;;5076658;28;20658;-78
2023/04/27 00:55:20;;;;;;;10.05;4.55;;;;;;;;;;5059083;28;20188;-78
2023/04/27 00:57:46;;;;;;;12.20;5.38;;;;;;;;;;5059244;28;20254;-78
2023/04/27 01:00:12;;;;;;;7.17;5.13;;;;;;;;;;5057971;28;20204;-78
2023/04/27 01:02:39;;;;;;;7.43;5.35;;;;;;;;;;5042658;28;20419;-78
2023/04/27 01:05:05;;;;;;;7.30;5.30;;;;;;;;;;5076331;28;20667;-79
2023/04/27 01:07:31;;;;;;;10.50;6.03;;;;;;;;;;5042625;28;20179;-78
2023/04/27 01:09:57;;;;;;;9.80;7.47;;;;;;;;;;5058960;28;20582;-79
2023/04/27 01:12:24;;;;;;;8.30;6.35;;;;;;;;;;5041619;28;20442;-78
2023/04/27 01:14:50;;;;;;;14.43;7.50;;;;;;;;;;5059088;28;20541;-78
2023/04/27 01:17:17;;;;;;;10.25;6.18;;;;;;;;;;5058188;28;20268;-78
2023/04/27 01:19:43;;;;;;;13.52;7.43;;;;;;;;;;5041947;28;20275;-78
2023/04/27 01:22:09;;;;;;;9.57;6.05;;;;;;;;;;5059140;28;20169;-79
2023/04/27 01:24:36;;;;;;;9.93;5.97;;;;;;;;;;5058571;28;20571;-78
2023/04/27 01:27:02;;;;;;;8.88;5.65;;;;;;;;;;5058721;28;20186;-78
2023/04/27 01:29:28;;;;;;;8.32;5.32;;;;;;;;;;5058575;28;20169;-78
2023/04/27 01:31:55;;;;;;;9.85;7.03;;;;;;;;;;5076852;28;20180;-78
2023/04/27 01:34:21;;;;;;;10.55;5.22;;;;;;;;;;5041659;28;20191;-78
2023/04/27 01:36:47;;;;;;;7.72;5.30;;;;;;;;;;5076730;28;20188;-78
2023/04/27 01:39:13;;;;;;;13.32;7.30;;;;;;;;;;5076044;28;20173;-79
2023/04/27 01:41:39;;;;;;;11.05;6.65;;;;;;;;;;5041863;28;20180;-78
2023/04/27 01:44:05;;;;;;;9.45;6.13;;;;;;;;;;5041778;28;20216;-78
2023/04/27 01:46:31;;;;;;;8.98;5.38;;;;;;;;;;5075902;28;20179;-78
2023/04/27 01:48:57;;;;;;;8.55;6.40;;;;;;;;;;5057873;28;20195;-78
2023/04/27 01:51:23;;;;;;;10.77;6.25;;;;;;;;;;5075430;28;20168;-78
2023/04/27 01:53:49;;;;;;;8.50;5.68;;;;;;;;;;5057965;28;20183;-80
2023/04/27 01:56:15;;;;;;;12.25;6.72;;;;;;;;;;5075697;28;20173;-79
2023/04/27 01:58:41;;;;;;;6.97;5.43;;;;;;;;;;5041435;28;20561;-79
2023/04/27 02:01:07;;;;;;;10.20;5.95;;;;;;;;;;5057537;28;20422;-83
2023/04/27 02:03:33;;;;;;;9.05;6.20;;;;;;;;;;5057627;28;20205;-79
2023/04/27 02:05:59;;;;;;;10.37;6.83;;;;;;;;;;5041372;28;20177;-80
2023/04/27 02:08:26;;;;;;;14.15;6.82;;;;;;;;;;5057451;28;20407;-79
2023/04/27 02:10:51;;;;;;;11.80;6.75;;;;;;;;;;5056621;28;20181;-79
2023/04/27 02:13:17;;;;;;;12.90;7.40;;;;;;;;;;5057441;28;20532;-79
2023/04/27 02:15:43;;;;;;;11.73;6.60;;;;;;;;;;5040795;28;20425;-79
2023/04/27 02:18:09;;;;;;;15.40;6.57;;;;;;;;;;5057293;28;20415;-81
2023/04/27 02:20:36;;;;;;;12.63;6.50;;;;;;;;;;5040651;28;20914;-79
2023/04/27 02:23:02;;;;;;;9.93;6.03;;;;;;;;;;5040811;28;20423;-79
2023/04/27 02:25:28;;;;;;;12.27;6.50;;;;;;;;;;5040915;28;20220;-79
2023/04/27 03:23:00;;;;;;;12.77;6.55;;;;;;;;;;5075108;28;20203;-79
2023/04/27 03:25:26;;;;;;;11.77;7.55;;;;;;;;;;5057173;28;20207;-79
2023/04/27 03:27:52;;;;;;;16.03;8.00;;;;;;;;;;5040825;28;20288;-79
2023/04/27 03:30:18;;;;;;;10.05;6.65;;;;;;;;;;5040598;28;20420;-79
2023/04/27 03:32:44;;;;;;;9.10;6.40;;;;;;;;;;5057582;28;20302;-79
2023/04/27 03:35:10;;;;;;;12.70;6.70;;;;;;;;;;5057336;28;20184;-80
2023/04/27 03:37:36;;;;;;;10.40;7.03;;;;;;;;;;5057276;28;20457;-79
2023/04/27 03:40:06;;;;;;;11.23;6.55;;;;;;;;;;5057510;28;20446;-79
2023/04/27 03:42:32;;;;;;;11.43;7.65;;;;;;;;;;5074743;28;20165;-79
2023/04/27 03:44:57;;;;;;;9.53;6.60;;;;;;;;;;5057020;28;20617;-79
2023/04/27 03:47:23;;;;;;;17.10;7.67;;;;;;;;;;5057210;28;20419;-79
2023/04/27 03:49:49;;;;;;;9.52;6.72;;;;;;;;;;5040864;28;20437;-79
2023/04/27 03:52:15;;;;;;;10.83;6.40;;;;;;;;;;5040120;28;20275;-79
2023/04/27 03:54:41;;;;;;;14.40;6.80;;;;;;;;;;5039978;28;20475;-79
2023/04/27 03:57:07;;;;;;;8.37;6.40;;;;;;;;;;5075444;28;20252;-79
2023/04/27 03:59:33;;;;;;;12.90;7.20;;;;;;;;;;5057272;28;20403;-79
2023/04/27 04:01:59;;;;;;;11.70;6.50;;;;;;;;;;5040630;28;20693;-79
2023/04/27 04:04:25;;;;;;;14.97;7.20;;;;;;;;;;5040551;28;20501;-79
2023/04/27 04:06:52;;;;;;;18.90;7.47;;;;;;;;;;5040639;28;20430;-79
2023/04/27 04:09:19;;;;;;;8.65;6.60;;;;;;;;;;5040196;28;20419;-79
2023/04/27 04:11:44;;;;;;;9.98;5.97;;;;;;;;;;5040719;28;20184;-79
2023/04/27 04:14:10;;;;;;;13.40;7.53;;;;;;;;;;5040524;28;20243;-79
2023/04/27 04:16:36;;;;;;;12.63;7.50;;;;;;;;;;5056669;28;20407;-79
2023/04/27 04:19:02;;;;;;;9.77;6.93;;;;;;;;;;5040132;28;20438;-79
2023/04/27 04:21:28;;;;;;;10.30;6.93;;;;;;;;;;5039984;28;20961;-79
2023/04/27 04:23:55;;;;;;;13.50;7.13;;;;;;;;;;5040309;28;20212;-79
2023/04/27 04:26:22;;;;;;;12.43;7.40;;;;;;;;;;5040045;28;20423;-79
2023/04/27 04:28:48;;;;;;;9.00;6.50;;;;;;;;;;5040327;28;20203;-79
2023/04/27 04:31:16;;;;;;;12.10;6.88;;;;;;;;;;5056877;28;20512;-79
2023/04/27 04:33:42;;;;;;;12.40;7.50;;;;;;;;;;5056810;28;20239;-79
2023/04/27 04:36:09;;;;;;;10.93;7.57;;;;;;;;;;5043683;28;20181;-79
2023/04/27 04:38:35;;;;;;;13.35;7.55;;;;;;;;;;5060566;28;20183;-79
2023/04/27 04:41:01;;;;;;;11.52;7.40;;;;;;;;;;5043839;28;20226;-79
2023/04/27 04:43:27;;;;;;;14.27;7.20;;;;;;;;;;5078137;28;20576;-79
2023/04/27 04:45:53;;;;;;;10.38;7.22;;;;;;;;;;5078208;28;20184;-79
2023/04/27 04:48:21;;;;;;;12.23;7.00;;;;;;;;;;5043418;28;20172;-79
2023/04/27 04:50:47;;;;;;;11.82;8.63;;;;;;;;;;5060620;28;20221;-79
2023/04/27 04:53:13;;;;;;;12.32;7.35;;;;;;;;;;5043579;28;20177;-79
2023/04/27 04:55:39;;;;;;;11.60;8.67;;;;;;;;;;5042587;28;20224;-79
2023/04/27 04:58:05;;;;;;;14.80;7.80;;;;;;;;;;5043778;28;20771;-79
2023/04/27 05:00:31;;;;;;;13.40;8.02;;;;;;;;;;5043169;28;20546;-79
2023/04/27 05:02:57;;;;;;;12.97;7.97;;;;;;;;;;5059585;28;20169;-79
2023/04/27 05:05:23;;;;;;;12.70;7.90;;;;;;;;;;5042646;28;20974;-79
2023/04/27 05:07:49;;;;;;;13.83;7.17;;;;;;;;;;5042953;28;20420;-78
2023/04/27 05:10:17;;;;;;;11.45;7.45;;;;;;;;;;5077513;28;20411;-79
2023/04/27 05:12:43;;;;;;;18.45;10.20;;;;;;;;;;5056427;28;20176;-79
2023/04/27 05:15:09;;;;;;;13.77;7.47;;;;;;;;;;5079894;28;20185;-79
2023/04/27 05:17:35;;;;;;;12.48;7.82;;;;;;;;;;5062661;28;20183;-79
2023/04/27 05:20:01;;;;;;;14.00;8.70;;;;;;;;;;5062949;28;20188;-79
2023/04/27 05:22:27;;;;;;;14.27;8.90;;;;;;;;;;5062600;28;20550;-78
2023/04/27 05:24:54;;;;;;;13.40;8.32;;;;;;;;;;5043487;28;20232;-79
2023/04/27 05:27:20;;;;;;;14.85;8.57;;;;;;;;;;5042997;28;20181;-81
2023/04/27 05:29:46;;;;;;;18.60;8.23;;;;;;;;;;5059278;28;20184;-79
2023/04/27 05:32:12;;;;;;;13.70;8.53;;;;;;;;;;5077276;28;20181;-79
2023/04/27 05:34:38;;;;;;;13.60;8.20;;;;;;;;;;5058952;28;20435;-79
2023/04/27 05:37:04;;;;;;;14.93;8.50;;;;;;;;;;5042937;28;20452;-79
2023/04/27 05:39:30;;;;;;;15.90;8.83;;;;;;;;;;5042560;28;20191;-79
2023/04/27 05:41:56;;;;;;;10.23;7.55;;;;;;;;;;5059490;28;20399;-81
2023/04/27 05:44:24;;;;;;;14.90;8.60;;;;;;;;;;5044974;28;20238;-79
2023/04/27 05:46:50;;;;;;;16.40;8.90;;;;;;;;;;5072791;28;20905;-79
2023/04/27 05:49:16;;;;;;;11.93;7.28;;;;;;;;;;5078869;28;20682;-79
2023/04/27 05:51:42;;;;;;;13.70;7.90;;;;;;;;;;5062422;28;20181;-79
2023/04/27 05:54:08;;;;;;;11.57;7.53;;;;;;;;;;5061999;28;20414;-79
2023/04/27 05:56:36;;;;;;;13.05;7.60;;;;;;;;;;5078849;28;20179;-79
2023/04/27 05:59:02;;;;;;;15.20;7.88;;;;;;;;;;5062407;28;20177;-79
2023/04/27 06:01:28;;;;;;;13.33;7.73;;;;;;;;;;5096375;28;20182;-79
2023/04/27 06:03:59;;;;;;;21.00;7.68;;;;;;;;;;5069562;28;20832;-79
2023/04/27 06:06:26;;;;;;;12.82;7.43;;;;;;;;;;5078396;28;20172;-79
2023/04/27 06:08:52;;;;;;;12.23;8.15;;;;;;;;;;5062339;28;20177;-79
2023/04/27 06:11:18;;;;;;;19.90;8.73;;;;;;;;;;5062018;28;20320;-79
2023/04/27 06:13:45;;;;;;;11.70;8.20;;;;;;;;;;5061843;28;20423;-79
2023/04/27 06:16:11;;;;;;;14.07;8.35;;;;;;;;;;5078418;28;21001;-83
2023/04/27 06:18:37;;;;;;;17.57;8.67;;;;;;;;;;5077703;28;20184;-83
2023/04/27 06:21:03;;;;;;;11.63;8.20;;;;;;;;;;5095918;28;20827;-82
2023/04/27 06:23:29;;;;;;;11.55;8.32;;;;;;;;;;5060547;28;20425;-82
2023/04/27 06:25:55;;;;;;;13.05;8.30;;;;;;;;;;5095659;28;20261;-82
2023/04/27 06:28:21;;;;;;;15.05;8.52;;;;;;;;;;5096293;28;20172;-82
2023/04/27 06:30:47;;;;;;;16.83;8.47;;;;;;;;;;5061002;28;20544;-83
2023/04/27 06:33:13;;;;;;;14.07;7.85;;;;;;;;;;5060767;28;20418;-82
2023/04/27 06:35:40;;;;;;;15.23;9.30;;;;;;;;;;5060405;28;20184;-82
2023/04/27 06:38:06;;;;;;;14.52;8.38;;;;;;;;;;5095857;28;20404;-81
2023/04/27 06:40:32;;;;;;;15.10;8.43;;;;;;;;;;5077496;28;20188;-82
2023/04/27 06:42:57;;;;;;;13.27;8.70;;;;;;;;;;5061554;28;20466;-82
2023/04/27 06:45:23;;;;;;;18.90;8.50;;;;;;;;;;5060587;28;20887;-82
2023/04/27 06:47:49;;;;;;;14.65;8.50;;;;;;;;;;5061330;28;20418;-82
2023/04/27 06:50:15;;;;;;;13.20;8.10;;;;;;;;;;5077675;28;20194;-82
2023/04/27 06:52:41;;;;;;;11.45;8.68;;;;;;;;;;5077901;28;20413;-82
2023/04/27 06:55:08;;;;;;;16.73;7.37;;;;;;;;;;5061277;28;20319;-82
2023/04/27 06:57:34;;;;;;;13.18;8.13;;;;;;;;;;5060144;28;20421;-82
2023/04/27 07:00:00;;;;;;;11.95;8.02;;;;;;;;;;5095503;28;20172;-83
2023/04/27 07:02:26;;;;;;;16.30;8.93;;;;;;;;;;5060599;28;20179;-82
2023/04/27 07:04:52;;;;;;;15.10;7.75;;;;;;;;;;5095605;28;20191;-82
2023/04/27 07:07:18;;;;;;;13.55;7.60;;;;;;;;;;5061045;28;20183;-82
2023/04/27 07:09:44;;;;;;;12.33;8.30;;;;;;;;;;5077227;28;20624;-82
2023/04/27 07:12:10;;;;;;;15.60;9.05;;;;;;;;;;5060596;28;20782;-82
2023/04/27 07:14:36;;;;;;;11.40;8.45;;;;;;;;;;5060540;28;20554;-82
2023/04/27 07:17:02;;;;;;;13.63;7.60;;;;;;;;;;5060754;28;20253;-82
2023/04/27 07:19:28;;;;;;;15.23;8.30;;;;;;;;;;5076659;28;20630;-82
2023/04/27 07:21:54;;;;;;;14.77;8.60;;;;;;;;;;5060379;28;20426;-82
2023/04/27 07:24:20;;;;;;;14.32;9.25;;;;;;;;;;5077124;28;20476;-83
2023/04/27 07:26:47;;;;;;;17.17;8.20;;;;;;;;;;5060991;28;20544;-82
2023/04/27 07:29:13;;;;;;;12.27;7.45;;;;;;;;;;5078746;28;20413;-82
2023/04/27 07:31:39;;;;;;;13.95;9.70;;;;;;;;;;5076699;28;20168;-82
2023/04/27 07:34:05;;;;;;;16.77;9.38;;;;;;;;;;5077232;28;20203;-82
2023/04/27 07:36:31;;;;;;;12.53;8.50;;;;;;;;;;5076705;28;20184;-82
2023/04/27 07:38:58;;;;;;;11.02;7.65;;;;;;;;;;5077331;28;20825;-82
2023/04/27 07:41:24;;;;;;;12.55;8.63;;;;;;;;;;5076736;28;20191;-83
2023/04/27 07:43:51;;;;;;;13.97;8.60;;;;;;;;;;5094313;28;20195;-83
2023/04/27 07:46:17;;;;;;;12.10;8.52;;;;;;;;;;5077406;28;20414;-82
2023/04/27 07:48:43;;;;;;;12.73;9.05;;;;;;;;;;5094264;28;20186;-82
2023/04/27 07:51:09;;;;;;;15.65;9.48;;;;;;;;;;5095227;28;20178;-82
2023/04/27 07:53:35;;;;;;;14.07;9.40;;;;;;;;;;5060351;28;20180;-82
2023/04/27 07:56:02;;;;;;;11.67;9.23;;;;;;;;;;5076527;28;20529;-82
2023/04/27 07:58:28;;;;;;;15.55;9.90;;;;;;;;;;5094820;28;20417;-82
2023/04/27 08:00:54;;;;;;;15.97;10.30;;;;;;;;;;5076540;28;20620;-82
2023/04/27 08:03:21;;;;;;;17.17;10.55;;;;;;;;;;5076831;28;20410;-82
2023/04/27 08:05:47;;;;;;;13.15;8.32;;;;;;;;;;5094139;28;20183;-82
2023/04/27 08:08:13;;;;;;;11.60;8.30;;;;;;;;;;5077387;28;20188;-82
2023/04/27 08:10:41;;;;;;;17.07;9.90;;;;;;;;;;5064107;28;20496;-82
2023/04/27 08:13:08;;;;;;;10.70;8.30;;;;;;;;;;5064407;28;20505;-82
2023/04/27 08:15:34;;;;;;;11.30;8.27;;;;;;;;;;5063707;28;20234;-82
2023/04/27 08:18:00;;;;;;;15.85;8.35;;;;;;;;;;5079730;28;20172;-82
2023/04/27 08:20:26;;;;;;;16.60;9.03;;;;;;;;;;5063532;28;20267;-82
2023/04/27 08:22:52;;;;;;;14.27;8.97;;;;;;;;;;5079895;28;20406;-83
2023/04/27 08:25:18;;;;;;;17.30;9.57;;;;;;;;;;5080536;28;20453;-82
2023/04/27 08:27:44;;;;;;;13.03;9.13;;;;;;;;;;5098132;28;20402;-82
2023/04/27 08:30:11;;;;;;;11.03;8.30;;;;;;;;;;5080200;28;20437;-82
2023/04/27 08:32:37;;;;;;;13.37;9.07;;;;;;;;;;5079283;28;20765;-82
2023/04/27 08:35:03;;;;;;;11.17;8.30;;;;;;;;;;5080462;28;20427;-82
2023/04/27 08:37:29;;;;;;;11.60;8.80;;;;;;;;;;5079667;28;20405;-82
2023/04/27 08:39:55;;;;;;;12.47;8.23;;;;;;;;;;5079600;28;20426;-83
2023/04/27 08:42:21;;;;;;;13.77;9.10;;;;;;;;;;5079770;28;20435;-83
2023/04/27 08:44:47;;;;;;;10.80;8.17;;;;;;;;;;5079561;28;20470;-83
2023/04/27 08:47:13;;;;;;;10.20;7.87;;;;;;;;;;5063039;28;20401;-83
2023/04/27 08:49:40;;;;;;;9.90;7.30;;;;;;;;;;5079071;28;20899;-83
2023/04/27 08:52:16;;;;;;;8.13;7.30;;;;;;;;;;5079336;28;20401;-82
2023/04/27 08:54:42;;;;;;;11.20;7.60;;;;;;;;;;5078967;28;20489;-82
2023/04/27 08:57:12;;;;;;;12.07;8.00;;;;;;;;;;5097710;28;20426;-83
2023/04/27 08:59:39;;;;;;;10.37;7.50;;;;;;;;;;5096908;28;20420;-80
2023/04/27 09:02:05;;;;;;;10.67;7.40;;;;;;;;;;5079181;28;20374;-82
2023/04/27 09:04:38;;;;;;;10.17;7.53;;;;;;;;;;5097011;28;20514;-82
2023/04/27 09:07:11;;;;;;;12.70;6.97;;;;;;;;;;5096928;28;20756;-82
2023/04/27 09:09:37;;;;;;;8.40;7.13;;;;;;;;;;5079477;28;20417;-82
2023/04/27 09:12:13;;;;;;;12.60;7.77;;;;;;;;;;5060775;28;20904;-80
2023/04/27 09:14:40;;;;;;;8.57;7.40;;;;;;;;;;5059402;28;20399;-80
2023/04/27 09:17:06;;;;;;;9.00;6.97;;;;;;;;;;5059205;28;20422;-82
2023/04/27 09:19:32;;;;;;;10.37;7.10;;;;;;;;;;5057975;28;20429;-82
2023/04/27 09:22:06;;;;;;;10.63;8.00;;;;;;;;;;5057818;28;20422;-82
2023/04/27 09:24:32;;;;;;;10.60;8.47;;;;;;;;;;5076541;28;20421;-82
2023/04/27 09:26:58;;;;;;;11.00;7.30;;;;;;;;;;5042028;28;20479;-81
2023/04/27 09:29:37;;;;;;;11.17;7.77;;;;;;;;;;5041332;28;20427;-83
2023/04/27 09:32:21;;;;;;;8.07;7.17;;;;;;;;;;5076313;28;20489;-82
2023/04/27 09:34:47;;;;;;;10.37;8.50;;;;;;;;;;5075819;28;20392;-82
2023/04/27 09:37:13;;;;;;;9.90;8.13;;;;;;;;;;5075566;28;20911;-82
2023/04/27 09:39:40;;;;;;;13.17;9.00;;;;;;;;;;5058091;28;20460;-82
2023/04/27 09:42:07;;;;;;;11.13;8.83;;;;;;;;;;5057684;28;20748;-82
2023/04/27 09:44:33;;;;;;;10.90;8.23;;;;;;;;;;5057522;28;21003;-82
2023/04/27 09:46:59;;;;;;;9.40;7.90;;;;;;;;;;5056234;28;20753;-83
2023/04/27 09:49:26;;;;;;;11.63;7.67;;;;;;;;;;5095975;28;20389;-83
2023/04/27 09:51:53;;;;;;;11.03;9.07;;;;;;;;;;5077541;28;20921;-83
2023/04/27 09:54:20;;;;;;;12.00;8.10;;;;;;;;;;5061068;28;20934;-84
2023/04/27 09:56:55;;;;;;;12.53;8.93;;;;;;;;;;5077498;28;20807;-84
2023/04/27 09:59:39;;;;;;;16.30;8.20;;;;;;;;;;5095514;28;20776;-83
2023/04/27 10:02:06;;;;;;;10.57;8.23;;;;;;;;;;5095683;28;20361;-83
2023/04/27 10:04:37;;;;;;;12.07;8.20;;;;;;;;;;5095188;28;21014;-83
2023/04/27 10:07:08;;;;;;;11.87;9.20;;;;;;;;;;5077568;28;20475;-83
2023/04/27 10:09:36;;;;;;;11.13;7.80;;;;;;;;;;5077378;28;20888;-83
2023/04/27 10:12:20;;;;;;;12.77;8.00;;;;;;;;;;5077100;28;20475;-83
2023/04/27 10:14:50;;;;;;;9.63;7.87;;;;;;;;;;5077019;28;20900;-84
2023/04/27 10:17:16;;;;;;;9.10;7.93;;;;;;;;;;5076785;28;20418;-83
2023/04/27 10:19:53;;;;;;;15.93;8.10;;;;;;;;;;5094999;28;20453;-82
2023/04/27 10:22:19;;;;;;;11.17;7.23;;;;;;;;;;5077182;28;20377;-83
2023/04/27 10:24:48;;;;;;;9.10;8.00;;;;;;;;;;5076951;28;20802;-83
2023/04/27 10:27:18;;;;;;;8.27;7.13;;;;;;;;;;5076829;28;20900;-83
2023/04/27 10:29:45;;;;;;;12.40;8.20;;;;;;;;;;5094847;28;20372;-84
2023/04/27 10:32:13;;;;;;;10.27;7.90;;;;;;;;;;5076338;28;20410;-83
2023/04/27 10:34:40;;;;;;;10.93;7.83;;;;;;;;;;5076198;28;20406;-83
2023/04/27 10:37:07;;;;;;;8.70;7.57;;;;;;;;;;5094680;28;20402;-82
2023/04/27 10:39:35;;;;;;;10.23;7.67;;;;;;;;;;5076435;28;20741;-82
2023/04/27 10:42:01;;;;;;;9.43;6.90;;;;;;;;;;5076171;28;20776;-82
2023/04/27 10:44:27;;;;;;;9.53;8.00;;;;;;;;;;5059802;28;20458;-83
2023/04/27 10:46:54;;;;;;;11.70;7.87;;;;;;;;;;5094046;28;20495;-82
2023/04/27 10:49:20;;;;;;;10.90;9.80;;;;;;;;;;5076428;28;20422;-82
2023/04/27 10:51:50;;;;;;;13.03;8.47;;;;;;;;;;5094167;28;20377;-82
2023/04/27 10:54:17;;;;;;;12.40;7.70;;;;;;;;;;5096658;28;20444;-82
2023/04/27 10:56:43;;;;;;;10.43;9.17;;;;;;;;;;5079914;28;20388;-81
2023/04/27 10:59:09;;;;;;;15.30;8.90;;;;;;;;;;5077206;28;20410;-82
2023/04/27 11:01:36;;;;;;;11.57;8.57;;;;;;;;;;5076671;28;20783;-82
2023/04/27 11:04:03;;;;;;;10.73;7.47;;;;;;;;;;5094373;28;20457;-83
2023/04/27 11:06:32;;;;;;;9.73;8.10;;;;;;;;;;5093798;28;20938;-83
2023/04/27 11:08:58;;;;;;;15.60;7.63;;;;;;;;;;5093808;28;20441;-83
2023/04/27 11:11:25;;;;;;;9.30;8.30;;;;;;;;;;5094074;28;20439;-83
2023/04/27 11:13:54;;;;;;;12.20;8.00;;;;;;;;;;5076034;28;20441;-83
2023/04/27 11:16:20;;;;;;;10.00;7.70;;;;;;;;;;5075786;28;20550;-82
2023/04/27 11:18:46;;;;;;;11.27;8.80;;;;;;;;;;5075874;28;20426;-83
2023/04/27 11:21:14;;;;;;;10.07;8.70;;;;;;;;;;5076004;28;20506;-83
2023/04/27 11:23:41;;;;;;;16.43;8.90;;;;;;;;;;5075452;28;20458;-83
2023/04/27 11:26:11;;;;;;;9.20;8.27;;;;;;;;;;5075696;28;20426;-83
2023/04/27 11:28:38;;;;;;;12.40;8.90;;;;;;;;;;5093871;28;20835;-83
2023/04/27 11:31:04;;;;;;;13.60;9.37;;;;;;;;;;5059047;28;20441;-83
2023/04/27 11:33:30;;;;;;;12.00;8.53;;;;;;;;;;5059434;28;20751;-83
2023/04/27 11:35:56;;;;;;;10.50;8.20;;;;;;;;;;5058810;28;20417;-83
2023/04/27 11:38:22;;;;;;;13.17;9.67;;;;;;;;;;5058823;28;20413;-83
2023/04/27 11:41:05;;;;;;;11.03;8.73;;;;;;;;;;5093450;28;20426;-83
2023/04/27 11:43:31;;;;;;;15.23;8.33;;;;;;;;;;5094532;28;20394;-83
2023/04/27 11:45:57;;;;;;;11.80;8.83;;;;;;;;;;5079541;28;20410;-83
2023/04/27 11:48:24;;;;;;;13.73;9.30;;;;;;;;;;5097900;28;20764;-83
2023/04/27 11:50:52;;;;;;;14.73;9.03;;;;;;;;;;5079419;28;20421;-83
2023/04/27 11:53:28;;;;;;;12.87;9.63;;;;;;;;;;5080252;28;20406;-82
2023/04/27 11:55:54;;;;;;;12.50;9.80;;;;;;;;;;5079363;28;20457;-83
2023/04/27 11:58:20;;;;;;;9.73;8.77;;;;;;;;;;5079763;28;20456;-83
2023/04/27 12:00:46;;;;;;;17.77;9.50;;;;;;;;;;5079568;28;20377;-83
2023/04/27 12:03:12;;;;;;;9.83;8.47;;;;;;;;;;5079457;28;20441;-83
2023/04/27 12:05:47;;;;;;;13.27;9.67;;;;;;;;;;5062674;28;20466;-84
2023/04/27 12:08:13;;;;;;;14.03;9.53;;;;;;;;;;5079333;28;20414;-83
2023/04/27 12:10:40;;;;;;;13.23;10.23;;;;;;;;;;5062738;28;20393;-83
2023/04/27 12:13:06;;;;;;;9.70;8.27;;;;;;;;;;5079103;28;20752;-83
2023/04/27 12:15:32;;;;;;;12.63;11.10;;;;;;;;;;5078993;28;20500;-83
2023/04/27 12:17:59;;;;;;;12.07;9.63;;;;;;;;;;5078965;28;20414;-83
2023/04/27 12:20:25;;;;;;;12.77;9.40;;;;;;;;;;5097448;28;20417;-82
2023/04/27 12:22:51;;;;;;;9.43;8.53;;;;;;;;;;5096897;28;20459;-83
2023/04/27 12:25:18;;;;;;;11.53;8.17;;;;;;;;;;5078857;28;20440;-83
2023/04/27 12:27:46;;;;;;;11.93;8.50;;;;;;;;;;5079159;28;20434;-82
2023/04/27 12:30:13;;;;;;;15.40;9.90;;;;;;;;;;5079456;28;20402;-84
2023/04/27 12:32:39;;;;;;;14.57;9.47;;;;;;;;;;5079153;28;20614;-84
2023/04/27 12:35:06;;;;;;;11.07;9.97;;;;;;;;;;5078725;28;20418;-83
2023/04/27 12:37:32;;;;;;;12.23;10.10;;;;;;;;;;5079372;28;20483;-84
2023/04/27 12:39:58;;;;;;;11.60;8.40;;;;;;;;;;5078517;28;20393;-84
2023/04/27 12:42:24;;;;;;;12.77;9.60;;;;;;;;;;5062312;28;20424;-84
2023/04/27 12:44:50;;;;;;;11.23;8.70;;;;;;;;;;5062033;28;20962;-84
2023/04/27 12:47:17;;;;;;;15.30;9.03;;;;;;;;;;5079028;28;20399;-84
2023/04/27 12:49:44;;;;;;;16.93;9.97;;;;;;;;;;5062538;28;20412;-85
2023/04/27 12:52:10;;;;;;;9.70;8.40;;;;;;;;;;5062632;28;20460;-84
2023/04/27 12:54:36;;;;;;;12.07;9.90;;;;;;;;;;5079682;28;20458;-84
2023/04/27 12:57:05;;;;;;;13.83;8.77;;;;;;;;;;5096297;28;20399;-84
2023/04/27 12:59:31;;;;;;;9.60;8.60;;;;;;;;;;5078670;28;20446;-84
2023/04/27 13:01:57;;;;;;;16.93;10.90;;;;;;;;;;5078329;28;20724;-84
2023/04/27 13:04:23;;;;;;;13.37;10.20;;;;;;;;;;5061792;28;20462;-84
2023/04/27 13:06:49;;;;;;;15.70;10.17;;;;;;;;;;5096339;28;20425;-84
2023/04/27 13:09:15;;;;;;;14.63;11.30;;;;;;;;;;5078093;28;20528;-84
2023/04/27 13:11:41;;;;;;;14.87;9.20;;;;;;;;;;5061720;28;20396;-84
2023/04/27 13:14:08;;;;;;;13.30;9.30;;;;;;;;;;5077972;28;20487;-84
2023/04/27 13:16:34;;;;;;;10.30;8.60;;;;;;;;;;5077973;28;20397;-84
2023/04/27 13:19:00;;;;;;;14.87;10.10;;;;;;;;;;5061307;28;20409;-84
2023/04/27 13:21:28;;;;;;;11.20;9.47;;;;;;;;;;5077704;28;20410;-84
2023/04/27 13:23:55;;;;;;;12.27;10.20;;;;;;;;;;5077520;28;20510;-84
2023/04/27 13:26:21;;;;;;;16.47;9.20;;;;;;;;;;5061280;28;20419;-84
2023/04/27 13:28:48;;;;;;;9.90;8.90;;;;;;;;;;5077920;28;20409;-84
2023/04/27 13:31:14;;;;;;;10.70;8.60;;;;;;;;;;5077742;28;20403;-84
2023/04/27 13:33:44;;;;;;;12.20;9.10;;;;;;;;;;5078007;28;20844;-84
2023/04/27 13:36:11;;;;;;;10.83;8.20;;;;;;;;;;5077285;28;20460;-84
2023/04/27 13:38:37;;;;;;;13.13;9.00;;;;;;;;;;5095362;28;20388;-83
2023/04/27 13:41:03;;;;;;;15.63;9.10;;;;;;;;;;5077546;28;20399;-85
2023/04/27 13:43:30;;;;;;;14.13;8.57;;;;;;;;;;5077184;28;20773;-85
2023/04/27 13:45:57;;;;;;;13.30;9.30;;;;;;;;;;5094919;28;20454;-84
2023/04/27 13:48:23;;;;;;;13.80;9.97;;;;;;;;;;5095304;28;20432;-85
2023/04/27 13:50:50;;;;;;;13.63;10.60;;;;;;;;;;5077102;28;20894;-84
2023/04/27 13:53:16;;;;;;;11.43;10.20;;;;;;;;;;5060387;28;20752;-84
2023/04/27 13:55:43;;;;;;;14.40;9.57;;;;;;;;;;5095419;28;20458;-85
2023/04/27 13:58:10;;;;;;;10.60;9.50;;;;;;;;;;5060307;28;20426;-85
2023/04/27 14:00:36;;;;;;;11.57;9.80;;;;;;;;;;5076937;28;20414;-84
2023/04/27 14:03:03;;;;;;;10.23;9.00;;;;;;;;;;5076609;28;20397;-84
2023/04/27 14:05:29;;;;;;;11.63;8.50;;;;;;;;;;5077162;28;20819;-84
2023/04/27 14:07:55;;;;;;;16.60;9.23;;;;;;;;;;5076453;28;20815;-85
2023/04/27 14:10:24;;;;;;;16.77;8.17;;;;;;;;;;5076812;28;20416;-84
2023/04/27 14:12:50;;;;;;;13.40;7.73;;;;;;;;;;5094720;28;20384;-85
2023/04/27 14:15:16;;;;;;;10.47;9.43;;;;;;;;;;5060169;28;20892;-83
2023/04/27 14:17:42;;;;;;;9.93;8.00;;;;;;;;;;5095021;28;20406;-84
2023/04/27 14:20:08;;;;;;;8.87;7.97;;;;;;;;;;5076565;28;20422;-84
2023/04/27 14:22:35;;;;;;;12.17;9.17;;;;;;;;;;5094885;28;20482;-84
2023/04/27 14:25:01;;;;;;;12.80;8.87;;;;;;;;;;5076127;28;20602;-84
2023/04/27 14:27:27;;;;;;;12.37;9.03;;;;;;;;;;5094565;28;20493;-85
2023/04/27 14:29:53;;;;;;;11.40;9.17;;;;;;;;;;5094373;28;20755;-85
2023/04/27 14:32:19;;;;;;;12.07;8.90;;;;;;;;;;5094539;28;20475;-84
2023/04/27 14:34:45;;;;;;;15.00;10.37;;;;;;;;;;5076245;28;20454;-85
2023/04/27 14:37:11;;;;;;;13.13;9.67;;;;;;;;;;5094275;28;20398;-84
2023/04/27 14:39:37;;;;;;;12.70;8.90;;;;;;;;;;5076194;28;20927;-85
2023/04/27 14:42:03;;;;;;;12.97;8.80;;;;;;;;;;5076498;28;20440;-85
2023/04/27 14:44:30;;;;;;;12.90;8.50;;;;;;;;;;5094016;28;20548;-85
2023/04/27 14:46:57;;;;;;;13.30;8.40;;;;;;;;;;5059265;28;20424;-85
2023/04/27 14:49:23;;;;;;;11.80;9.13;;;;;;;;;;5094380;28;20414;-85
2023/04/27 14:51:49;;;;;;;12.70;9.20;;;;;;;;;;5094449;28;20398;-85
2023/04/27 14:54:15;;;;;;;11.27;8.90;;;;;;;;;;5093502;28;20918;-85
2023/04/27 14:56:41;;;;;;;11.50;9.70;;;;;;;;;;5076282;28;20410;-85
2023/04/27 14:59:07;;;;;;;9.77;7.40;;;;;;;;;;5075699;28;20414;-85
2023/04/27 15:01:33;;;;;;;14.33;9.63;;;;;;;;;;5059314;28;20422;-85
2023/04/27 15:03:59;;;;;;;13.07;8.90;;;;;;;;;;5093552;28;20508;-85
2023/04/27 15:06:27;;;;;;;12.43;8.97;;;;;;;;;;5076019;28;20894;-86
2023/04/27 15:08:54;;;;;;;10.83;9.00;;;;;;;;;;5076193;28;20406;-86
2023/04/27 15:11:20;;;;;;;11.73;9.47;;;;;;;;;;5075968;28;20413;-85
2023/04/27 15:13:46;;;;;;;9.53;8.53;;;;;;;;;;5059010;28;20417;-85
2023/04/27 15:16:12;;;;;;;10.50;8.60;;;;;;;;;;5093223;28;20400;-86
2023/04/27 15:18:38;;;;;;;15.20;9.47;;;;;;;;;;5075279;28;20481;-85
2023/04/27 15:21:05;;;;;;;10.53;8.13;;;;;;;;;;5093208;28;20398;-86
2023/04/27 15:23:32;;;;;;;9.27;8.33;;;;;;;;;;5075639;28;20432;-86